sensor_id;sensor_type;location;lat;lon;timestamp;pressure;altitude;pressure_sealevel;temperature;humidity
42289;BME280;30230;47.520;19.016;2023-02-18T00:00:28;99294.38;;;11.50;75.30
42289;BME280;30230;47.520;19.016;2023-02-18T00:02:29;99296.25;;;11.49;75.30
42289;BME280;30230;47.520;19.016;2023-02-18T00:04:31;99297.69;;;11.52;75.53
42289;BME280;30230;47.520;19.016;2023-02-18T00:06:34;99293.75;;;11.61;75.17
42289;BME280;30230;47.520;19.016;2023-02-18T00:08:35;99292.03;;;11.73;75.52
42289;BME280;30230;47.520;19.016;2023-02-18T00:10:35;99286.25;;;11.83;74.89
42289;BME280;30230;47.520;19.016;2023-02-18T00:12:35;99289.16;;;11.74;74.69
42289;BME280;30230;47.520;19.016;2023-02-18T00:14:37;99284.13;;;11.78;74.83
42289;BME280;30230;47.520;19.016;2023-02-18T00:16:38;99279.56;;;11.79;75.14
42289;BME280;30230;47.520;19.016;2023-02-18T00:18:38;99272.91;;;11.74;75.08
42289;BME280;30230;47.520;19.016;2023-02-18T00:20:39;99285.19;;;11.77;75.20
42289;BME280;30230;47.520;19.016;2023-02-18T00:22:39;99274.78;;;11.67;76.14
42289;BME280;30230;47.520;19.016;2023-02-18T00:24:40;99283.94;;;11.80;75.39
42289;BME280;30230;47.520;19.016;2023-02-18T00:26:41;99276.84;;;11.92;74.84
42289;BME280;30230;47.520;19.016;2023-02-18T00:28:41;99280.78;;;12.03;74.09
42289;BME280;30230;47.520;19.016;2023-02-18T00:30:42;99279.56;;;11.92;74.61
42289;BME280;30230;47.520;19.016;2023-02-18T00:32:43;99280.41;;;11.92;74.68
42289;BME280;30230;47.520;19.016;2023-02-18T00:34:43;99276.66;;;12.00;75.44
42289;BME280;30230;47.520;19.016;2023-02-18T00:36:44;99273.50;;;12.03;74.25
42289;BME280;30230;47.520;19.016;2023-02-18T00:38:45;99267.06;;;11.97;75.05
42289;BME280;30230;47.520;19.016;2023-02-18T00:40:46;99261.88;;;11.83;75.89
42289;BME280;30230;47.520;19.016;2023-02-18T00:42:46;99254.16;;;11.93;75.12
42289;BME280;30230;47.520;19.016;2023-02-18T00:44:47;99267.69;;;11.99;74.92
42289;BME280;30230;47.520;19.016;2023-02-18T00:46:47;99264.75;;;12.01;75.07
42289;BME280;30230;47.520;19.016;2023-02-18T00:48:48;99264.78;;;11.94;75.35
42289;BME280;30230;47.520;19.016;2023-02-18T00:50:49;99274.16;;;11.92;75.08
42289;BME280;30230;47.520;19.016;2023-02-18T00:52:49;99271.88;;;11.89;75.78
42289;BME280;30230;47.520;19.016;2023-02-18T00:54:50;99275.63;;;11.94;75.23
42289;BME280;30230;47.520;19.016;2023-02-18T00:56:50;99257.50;;;11.95;75.25
42289;BME280;30230;47.520;19.016;2023-02-18T00:58:51;99262.44;;;12.11;74.65
42289;BME280;30230;47.520;19.016;2023-02-18T01:00:52;99242.69;;;11.97;75.08
42289;BME280;30230;47.520;19.016;2023-02-18T01:02:52;99253.28;;;12.06;74.75
42289;BME280;30230;47.520;19.016;2023-02-18T01:04:53;99248.53;;;12.01;75.39
42289;BME280;30230;47.520;19.016;2023-02-18T01:06:54;99238.53;;;12.02;75.65
42289;BME280;30230;47.520;19.016;2023-02-18T01:08:54;99232.69;;;12.05;74.86
42289;BME280;30230;47.520;19.016;2023-02-18T01:10:56;99248.25;;;12.09;74.64
42289;BME280;30230;47.520;19.016;2023-02-18T01:12:57;99247.41;;;12.22;73.70
42289;BME280;30230;47.520;19.016;2023-02-18T01:14:58;99245.66;;;12.34;73.33
42289;BME280;30230;47.520;19.016;2023-02-18T01:16:58;99241.34;;;12.27;73.59
42289;BME280;30230;47.520;19.016;2023-02-18T01:18:58;99245.09;;;12.25;73.89
42289;BME280;30230;47.520;19.016;2023-02-18T01:20:59;99248.00;;;12.24;74.09
42289;BME280;30230;47.520;19.016;2023-02-18T01:23:00;99243.22;;;12.26;73.66
42289;BME280;30230;47.520;19.016;2023-02-18T01:25:01;99248.00;;;12.31;73.51
42289;BME280;30230;47.520;19.016;2023-02-18T01:27:01;99247.16;;;12.30;73.46
42289;BME280;30230;47.520;19.016;2023-02-18T01:29:01;99239.78;;;12.44;72.92
42289;BME280;30230;47.520;19.016;2023-02-18T01:31:07;99246.88;;;12.45;72.38
42289;BME280;30230;47.520;19.016;2023-02-18T01:33:09;99240.44;;;12.46;72.43
42289;BME280;30230;47.520;19.016;2023-02-18T01:35:12;99214.41;;;12.38;72.41
42289;BME280;30230;47.520;19.016;2023-02-18T01:37:13;99237.53;;;12.41;72.78
42289;BME280;30230;47.520;19.016;2023-02-18T01:39:13;99232.34;;;12.33;72.79
42289;BME280;30230;47.520;19.016;2023-02-18T01:41:14;99231.94;;;12.36;72.99
42289;BME280;30230;47.520;19.016;2023-02-18T01:43:14;99241.91;;;12.35;72.95
42289;BME280;30230;47.520;19.016;2023-02-18T01:47:33;99215.22;;;12.39;72.68
42289;BME280;30230;47.520;19.016;2023-02-18T01:49:35;99227.53;;;12.41;72.67
42289;BME280;30230;47.520;19.016;2023-02-18T01:51:39;99233.31;;;12.51;71.78
42289;BME280;30230;47.520;19.016;2023-02-18T01:53:46;99228.91;;;12.57;71.93
42289;BME280;30230;47.520;19.016;2023-02-18T01:55:49;99245.84;;;12.46;72.14
42289;BME280;30230;47.520;19.016;2023-02-18T01:57:49;99233.94;;;12.47;71.73
42289;BME280;30230;47.520;19.016;2023-02-18T02:00:13;99239.72;;;12.57;71.13
42289;BME280;30230;47.520;19.016;2023-02-18T02:02:18;99240.09;;;12.67;70.93
42289;BME280;30230;47.520;19.016;2023-02-18T02:04:20;99235.97;;;12.58;71.29
42289;BME280;30230;47.520;19.016;2023-02-18T02:06:22;99236.38;;;12.62;70.56
42289;BME280;30230;47.520;19.016;2023-02-18T02:08:23;99226.38;;;12.62;71.05
42289;BME280;30230;47.520;19.016;2023-02-18T02:10:27;99229.63;;;12.71;70.30
42289;BME280;30230;47.520;19.016;2023-02-18T02:16:52;99217.97;;;12.70;70.15
42289;BME280;30230;47.520;19.016;2023-02-18T02:24:48;99231.25;;;12.78;68.89
42289;BME280;30230;47.520;19.016;2023-02-18T02:36:15;99226.25;;;12.75;69.81
42289;BME280;30230;47.520;19.016;2023-02-18T02:40:53;99217.53;;;12.73;69.39
42289;BME280;30230;47.520;19.016;2023-02-18T02:47:47;99231.19;;;12.85;68.75
42289;BME280;30230;47.520;19.016;2023-02-18T02:49:57;99213.16;;;12.72;68.75
42289;BME280;30230;47.520;19.016;2023-02-18T02:52:23;99208.56;;;12.73;69.08
42289;BME280;30230;47.520;19.016;2023-02-18T02:54:27;99229.19;;;12.74;69.26
42289;BME280;30230;47.520;19.016;2023-02-18T02:56:27;99221.72;;;12.69;69.57
42289;BME280;30230;47.520;19.016;2023-02-18T02:58:28;99228.97;;;12.75;69.76
42289;BME280;30230;47.520;19.016;2023-02-18T03:08:01;99223.59;;;12.69;69.70
42289;BME280;30230;47.520;19.016;2023-02-18T03:10:08;99244.88;;;12.65;69.83
42289;BME280;30230;47.520;19.016;2023-02-18T03:19:15;99235.31;;;12.63;70.02
42289;BME280;30230;47.520;19.016;2023-02-18T03:21:24;99239.31;;;12.54;70.35
42289;BME280;30230;47.520;19.016;2023-02-18T03:23:36;99243.69;;;12.61;69.83
42289;BME280;30230;47.520;19.016;2023-02-18T03:25:39;99231.38;;;12.59;70.09
42289;BME280;30230;47.520;19.016;2023-02-18T03:27:50;99249.03;;;12.68;70.15
42289;BME280;30230;47.520;19.016;2023-02-18T03:29:58;99253.88;;;12.59;69.68
42289;BME280;30230;47.520;19.016;2023-02-18T03:32:04;99237.75;;;12.71;69.89
42289;BME280;30230;47.520;19.016;2023-02-18T03:34:10;99243.41;;;12.69;69.89
42289;BME280;30230;47.520;19.016;2023-02-18T03:36:12;99248.59;;;12.71;69.40
42289;BME280;30230;47.520;19.016;2023-02-18T03:38:14;99253.00;;;12.65;70.14
42289;BME280;30230;47.520;19.016;2023-02-18T03:40:17;99242.47;;;12.50;70.62
42289;BME280;30230;47.520;19.016;2023-02-18T03:42:18;99253.84;;;12.66;70.31
42289;BME280;30230;47.520;19.016;2023-02-18T03:44:18;99263.44;;;12.68;70.36
42289;BME280;30230;47.520;19.016;2023-02-18T03:46:19;99256.81;;;12.58;70.37
42289;BME280;30230;47.520;19.016;2023-02-18T03:48:20;99273.53;;;12.48;70.79
42289;BME280;30230;47.520;19.016;2023-02-18T03:50:20;99257.09;;;12.43;71.24
42289;BME280;30230;47.520;19.016;2023-02-18T03:52:21;99267.94;;;12.43;71.11
42289;BME280;30230;47.520;19.016;2023-02-18T03:54:21;99258.06;;;12.62;70.58
42289;BME280;30230;47.520;19.016;2023-02-18T03:56:22;99273.22;;;12.69;70.17
42289;BME280;30230;47.520;19.016;2023-02-18T03:58:22;99253.88;;;12.59;70.40
42289;BME280;30230;47.520;19.016;2023-02-18T04:00:23;99278.31;;;12.52;70.91
42289;BME280;30230;47.520;19.016;2023-02-18T04:02:23;99275.81;;;12.51;70.59
42289;BME280;30230;47.520;19.016;2023-02-18T04:04:24;99282.28;;;12.50;71.44
42289;BME280;30230;47.520;19.016;2023-02-18T04:06:24;99277.22;;;12.60;70.46
42289;BME280;30230;47.520;19.016;2023-02-18T04:08:25;99279.59;;;12.82;69.59
42289;BME280;30230;47.520;19.016;2023-02-18T04:10:25;99273.38;;;12.74;69.85
42289;BME280;30230;47.520;19.016;2023-02-18T04:12:26;99275.22;;;12.81;69.40
42289;BME280;30230;47.520;19.016;2023-02-18T04:14:26;99268.03;;;12.68;70.11
42289;BME280;30230;47.520;19.016;2023-02-18T04:16:26;99274.69;;;12.65;70.45
42289;BME280;30230;47.520;19.016;2023-02-18T04:18:27;99261.41;;;12.57;70.68
42289;BME280;30230;47.520;19.016;2023-02-18T04:20:27;99262.28;;;12.51;70.97
42289;BME280;30230;47.520;19.016;2023-02-18T04:22:28;99284.56;;;12.53;71.40
42289;BME280;30230;47.520;19.016;2023-02-18T04:24:29;99274.78;;;12.52;71.51
42289;BME280;30230;47.520;19.016;2023-02-18T04:26:29;99286.84;;;12.56;71.57
42289;BME280;30230;47.520;19.016;2023-02-18T04:28:29;99278.72;;;12.49;71.78
42289;BME280;30230;47.520;19.016;2023-02-18T04:30:30;99281.06;;;12.46;72.20
42289;BME280;30230;47.520;19.016;2023-02-18T04:32:30;99270.22;;;12.46;71.76
42289;BME280;30230;47.520;19.016;2023-02-18T04:34:31;99273.94;;;12.45;72.14
42289;BME280;30230;47.520;19.016;2023-02-18T04:36:31;99274.13;;;12.50;71.92
42289;BME280;30230;47.520;19.016;2023-02-18T04:38:32;99284.59;;;12.40;72.28
42289;BME280;30230;47.520;19.016;2023-02-18T04:40:32;99280.88;;;12.41;72.63
42289;BME280;30230;47.520;19.016;2023-02-18T04:42:33;99290.06;;;12.33;72.44
42289;BME280;30230;47.520;19.016;2023-02-18T04:44:35;99277.06;;;12.48;72.30
42289;BME280;30230;47.520;19.016;2023-02-18T04:46:36;99282.06;;;12.51;71.92
42289;BME280;30230;47.520;19.016;2023-02-18T04:48:36;99290.22;;;12.45;72.58
42289;BME280;30230;47.520;19.016;2023-02-18T04:50:37;99303.59;;;12.33;72.82
42289;BME280;30230;47.520;19.016;2023-02-18T04:52:37;99289.19;;;12.39;72.45
42289;BME280;30230;47.520;19.016;2023-02-18T04:54:38;99297.94;;;12.41;72.59
42289;BME280;30230;47.520;19.016;2023-02-18T04:56:38;99324.22;;;12.34;73.38
42289;BME280;30230;47.520;19.016;2023-02-18T04:58:38;99281.94;;;12.33;73.99
42289;BME280;30230;47.520;19.016;2023-02-18T05:00:39;99314.44;;;12.33;74.10
42289;BME280;30230;47.520;19.016;2023-02-18T05:02:39;99305.25;;;12.34;73.79
42289;BME280;30230;47.520;19.016;2023-02-18T05:04:39;99304.94;;;12.04;75.47
42289;BME280;30230;47.520;19.016;2023-02-18T05:06:40;99317.44;;;12.05;76.18
42289;BME280;30230;47.520;19.016;2023-02-18T05:08:42;99310.13;;;12.12;74.87
42289;BME280;30230;47.520;19.016;2023-02-18T05:10:42;99303.72;;;12.00;75.91
42289;BME280;30230;47.520;19.016;2023-02-18T05:12:43;99317.25;;;11.93;76.70
42289;BME280;30230;47.520;19.016;2023-02-18T05:14:43;99314.56;;;11.87;77.36
42289;BME280;30230;47.520;19.016;2023-02-18T05:16:44;99328.91;;;11.87;77.93
42289;BME280;30230;47.520;19.016;2023-02-18T05:18:44;99324.53;;;11.80;78.34
42289;BME280;30230;47.520;19.016;2023-02-18T05:20:44;99326.00;;;11.76;78.35
42289;BME280;30230;47.520;19.016;2023-02-18T05:22:45;99328.28;;;11.79;78.71
42289;BME280;30230;47.520;19.016;2023-02-18T05:24:45;99331.59;;;11.81;78.72
42289;BME280;30230;47.520;19.016;2023-02-18T05:26:46;99329.94;;;11.80;79.53
42289;BME280;30230;47.520;19.016;2023-02-18T05:28:46;99333.50;;;11.73;79.57
42289;BME280;30230;47.520;19.016;2023-02-18T05:30:47;99325.59;;;11.65;80.78
42289;BME280;30230;47.520;19.016;2023-02-18T05:32:47;99332.66;;;11.60;80.89
42289;BME280;30230;47.520;19.016;2023-02-18T05:34:48;99354.28;;;11.66;80.47
42289;BME280;30230;47.520;19.016;2023-02-18T05:36:48;99353.28;;;11.54;81.09
42289;BME280;30230;47.520;19.016;2023-02-18T05:38:48;99344.94;;;11.69;80.43
42289;BME280;30230;47.520;19.016;2023-02-18T05:40:49;99346.63;;;11.63;80.10
42289;BME280;30230;47.520;19.016;2023-02-18T05:42:49;99353.66;;;11.78;79.45
42289;BME280;30230;47.520;19.016;2023-02-18T05:44:50;99352.00;;;11.70;79.65
42289;BME280;30230;47.520;19.016;2023-02-18T05:46:50;99364.72;;;11.69;80.02
42289;BME280;30230;47.520;19.016;2023-02-18T05:48:51;99352.66;;;11.59;79.84
42289;BME280;30230;47.520;19.016;2023-02-18T05:50:53;99368.25;;;11.70;79.63
42289;BME280;30230;47.520;19.016;2023-02-18T05:52:53;99370.31;;;11.61;79.53
42289;BME280;30230;47.520;19.016;2023-02-18T05:54:53;99347.66;;;11.49;79.57
42289;BME280;30230;47.520;19.016;2023-02-18T05:56:54;99376.16;;;11.58;79.04
42289;BME280;30230;47.520;19.016;2023-02-18T05:58:55;99375.75;;;11.74;78.17
42289;BME280;30230;47.520;19.016;2023-02-18T06:00:55;99360.75;;;11.65;78.27
42289;BME280;30230;47.520;19.016;2023-02-18T06:02:56;99383.25;;;11.79;78.05
42289;BME280;30230;47.520;19.016;2023-02-18T06:04:56;99390.72;;;11.64;79.46
42289;BME280;30230;47.520;19.016;2023-02-18T06:06:56;99382.59;;;11.44;80.22
42289;BME280;30230;47.520;19.016;2023-02-18T06:08:57;99379.91;;;11.44;79.90
42289;BME280;30230;47.520;19.016;2023-02-18T06:10:57;99387.38;;;11.48;79.45
42289;BME280;30230;47.520;19.016;2023-02-18T06:12:59;99382.38;;;11.45;79.14
42289;BME280;30230;47.520;19.016;2023-02-18T06:15:01;99395.28;;;11.57;78.63
42289;BME280;30230;47.520;19.016;2023-02-18T06:17:02;99402.56;;;11.56;78.32
42289;BME280;30230;47.520;19.016;2023-02-18T06:19:03;99394.44;;;11.36;79.57
42289;BME280;30230;47.520;19.016;2023-02-18T06:21:03;99399.88;;;11.43;79.46
42289;BME280;30230;47.520;19.016;2023-02-18T06:23:04;99394.44;;;11.36;79.26
42289;BME280;30230;47.520;19.016;2023-02-18T06:25:05;99409.00;;;11.42;78.82
42289;BME280;30230;47.520;19.016;2023-02-18T06:27:06;99401.94;;;11.41;79.01
42289;BME280;30230;47.520;19.016;2023-02-18T06:29:06;99415.88;;;11.44;78.71
42289;BME280;30230;47.520;19.016;2023-02-18T06:31:07;99411.53;;;11.57;78.71
42289;BME280;30230;47.520;19.016;2023-02-18T06:33:07;99418.59;;;11.38;79.69
42289;BME280;30230;47.520;19.016;2023-02-18T06:35:07;99410.88;;;11.41;80.09
42289;BME280;30230;47.520;19.016;2023-02-18T06:37:08;99408.59;;;11.45;79.85
42289;BME280;30230;47.520;19.016;2023-02-18T06:39:08;99407.97;;;11.43;79.97
42289;BME280;30230;47.520;19.016;2023-02-18T06:41:10;99413.78;;;11.46;80.23
42289;BME280;30230;47.520;19.016;2023-02-18T06:43:12;99401.09;;;11.40;80.00
42289;BME280;30230;47.520;19.016;2023-02-18T06:45:12;99405.69;;;11.40;80.47
42289;BME280;30230;47.520;19.016;2023-02-18T06:47:12;99405.50;;;11.48;80.07
42289;BME280;30230;47.520;19.016;2023-02-18T06:49:13;99401.94;;;11.41;81.28
42289;BME280;30230;47.520;19.016;2023-02-18T06:51:13;99408.78;;;11.37;83.05
42289;BME280;30230;47.520;19.016;2023-02-18T06:53:15;99403.63;;;11.55;83.19
42289;BME280;30230;47.520;19.016;2023-02-18T06:55:18;99412.34;;;11.44;84.12
42289;BME280;30230;47.520;19.016;2023-02-18T06:57:19;99418.81;;;11.43;84.75
42289;BME280;30230;47.520;19.016;2023-02-18T06:59:19;99414.03;;;11.58;84.16
42289;BME280;30230;47.520;19.016;2023-02-18T07:01:20;99418.81;;;11.56;84.64
42289;BME280;30230;47.520;19.016;2023-02-18T07:03:20;99411.34;;;11.58;84.68
42289;BME280;30230;47.520;19.016;2023-02-18T07:05:20;99403.41;;;11.43;85.61
42289;BME280;30230;47.520;19.016;2023-02-18T07:07:21;99414.44;;;11.48;85.66
42289;BME280;30230;47.520;19.016;2023-02-18T07:09:21;99423.38;;;11.56;85.78
42289;BME280;30230;47.520;19.016;2023-02-18T07:11:22;99413.81;;;11.53;85.36
42289;BME280;30230;47.520;19.016;2023-02-18T07:13:22;99413.41;;;11.56;85.29
42289;BME280;30230;47.520;19.016;2023-02-18T07:15:22;99408.38;;;11.40;85.70
42289;BME280;30230;47.520;19.016;2023-02-18T07:17:23;99421.28;;;11.51;86.00
42289;BME280;30230;47.520;19.016;2023-02-18T07:19:23;99420.06;;;11.54;85.19
42289;BME280;30230;47.520;19.016;2023-02-18T07:21:24;99422.13;;;11.45;85.79
42289;BME280;30230;47.520;19.016;2023-02-18T07:23:24;99409.81;;;11.36;85.97
42289;BME280;30230;47.520;19.016;2023-02-18T07:25:25;99411.09;;;11.33;85.71
42289;BME280;30230;47.520;19.016;2023-02-18T07:27:25;99422.78;;;11.54;85.09
42289;BME280;30230;47.520;19.016;2023-02-18T07:29:26;99423.81;;;11.53;84.74
42289;BME280;30230;47.520;19.016;2023-02-18T07:31:26;99418.38;;;11.46;85.11
42289;BME280;30230;47.520;19.016;2023-02-18T07:33:27;99422.38;;;11.63;83.54
42289;BME280;30230;47.520;19.016;2023-02-18T07:35:27;99422.56;;;11.75;82.92
42289;BME280;30230;47.520;19.016;2023-02-18T07:37:28;99412.38;;;11.64;83.17
42289;BME280;30230;47.520;19.016;2023-02-18T07:39:28;99419.03;;;11.81;82.04
42289;BME280;30230;47.520;19.016;2023-02-18T07:41:28;99412.78;;;11.67;81.93
42289;BME280;30230;47.520;19.016;2023-02-18T07:43:29;99416.53;;;11.80;81.92
42289;BME280;30230;47.520;19.016;2023-02-18T07:45:29;99411.13;;;11.73;81.70
42289;BME280;30230;47.520;19.016;2023-02-18T07:47:30;99417.00;;;11.90;80.62
42289;BME280;30230;47.520;19.016;2023-02-18T07:49:31;99409.09;;;11.95;79.85
42289;BME280;30230;47.520;19.016;2023-02-18T07:51:31;99407.19;;;12.02;79.55
42289;BME280;30230;47.520;19.016;2023-02-18T07:53:32;99398.66;;;12.12;79.04
42289;BME280;30230;47.520;19.016;2023-02-18T07:55:32;99398.38;;;12.40;77.54
42289;BME280;30230;47.520;19.016;2023-02-18T07:57:48;99414.38;;;12.55;77.28
42289;BME280;30230;47.520;19.016;2023-02-18T07:59:59;99415.63;;;12.59;77.20
42289;BME280;30230;47.520;19.016;2023-02-18T08:02:00;99405.22;;;12.49;77.54
42289;BME280;30230;47.520;19.016;2023-02-18T08:04:01;99399.00;;;12.48;77.12
42289;BME280;30230;47.520;19.016;2023-02-18T08:06:03;99410.19;;;12.72;76.22
42289;BME280;30230;47.520;19.016;2023-02-18T08:08:04;99412.78;;;12.92;76.39
42289;BME280;30230;47.520;19.016;2023-02-18T08:10:05;99415.88;;;13.02;75.12
42289;BME280;30230;47.520;19.016;2023-02-18T08:12:06;99417.16;;;12.99;75.37
42289;BME280;30230;47.520;19.016;2023-02-18T08:14:07;99407.81;;;12.89;75.33
42289;BME280;30230;47.520;19.016;2023-02-18T08:16:08;99408.41;;;12.97;74.63
42289;BME280;30230;47.520;19.016;2023-02-18T08:18:19;99415.13;;;12.88;74.89
42289;BME280;30230;47.520;19.016;2023-02-18T08:20:20;99421.78;;;12.86;75.36
42289;BME280;30230;47.520;19.016;2023-02-18T08:22:21;99396.44;;;12.60;75.14
42289;BME280;30230;47.520;19.016;2023-02-18T08:24:21;99416.41;;;12.79;74.90
42289;BME280;30230;47.520;19.016;2023-02-18T08:26:21;99423.94;;;12.77;74.74
42289;BME280;30230;47.520;19.016;2023-02-18T08:28:23;99414.78;;;12.65;75.07
42289;BME280;30230;47.520;19.016;2023-02-18T08:30:24;99421.25;;;12.64;75.63
42289;BME280;30230;47.520;19.016;2023-02-18T08:32:28;99424.75;;;12.77;75.27
42289;BME280;30230;47.520;19.016;2023-02-18T08:34:28;99419.34;;;12.71;74.82
42289;BME280;30230;47.520;19.016;2023-02-18T08:36:29;99415.59;;;12.72;74.88
42289;BME280;30230;47.520;19.016;2023-02-18T08:38:30;99416.03;;;12.69;75.33
42289;BME280;30230;47.520;19.016;2023-02-18T08:40:30;99412.69;;;12.60;74.92
42289;BME280;30230;47.520;19.016;2023-02-18T08:42:31;99408.53;;;12.64;75.45
42289;BME280;30230;47.520;19.016;2023-02-18T08:44:31;99413.47;;;12.81;74.93
42289;BME280;30230;47.520;19.016;2023-02-18T08:46:31;99417.00;;;12.81;75.14
42289;BME280;30230;47.520;19.016;2023-02-18T08:48:32;99424.41;;;13.06;74.43
42289;BME280;30230;47.520;19.016;2023-02-18T08:50:33;99422.47;;;13.19;73.94
42289;BME280;30230;47.520;19.016;2023-02-18T08:52:33;99422.06;;;13.16;73.62
42289;BME280;30230;47.520;19.016;2023-02-18T08:54:33;99425.63;;;13.16;73.89
42289;BME280;30230;47.520;19.016;2023-02-18T08:56:34;99419.97;;;13.18;74.41
42289;BME280;30230;47.520;19.016;2023-02-18T08:58:35;99421.47;;;13.14;74.22
42289;BME280;30230;47.520;19.016;2023-02-18T09:00:37;99429.81;;;13.12;73.74
42289;BME280;30230;47.520;19.016;2023-02-18T09:02:38;99425.53;;;12.91;73.97
42289;BME280;30230;47.520;19.016;2023-02-18T09:04:38;99417.56;;;12.96;73.62
42289;BME280;30230;47.520;19.016;2023-02-18T09:06:39;99431.38;;;12.88;74.44
42289;BME280;30230;47.520;19.016;2023-02-18T09:08:39;99431.19;;;12.76;75.35
42289;BME280;30230;47.520;19.016;2023-02-18T09:10:39;99433.34;;;12.68;75.33
42289;BME280;30230;47.520;19.016;2023-02-18T09:12:40;99406.06;;;12.56;75.96
42289;BME280;30230;47.520;19.016;2023-02-18T09:14:42;99419.16;;;12.66;76.45
42289;BME280;30230;47.520;19.016;2023-02-18T09:16:42;99419.16;;;12.72;76.29
42289;BME280;30230;47.520;19.016;2023-02-18T09:18:43;99414.97;;;12.70;75.19
42289;BME280;30230;47.520;19.016;2023-02-18T09:20:44;99416.00;;;12.75;75.91
42289;BME280;30230;47.520;19.016;2023-02-18T09:22:47;99410.75;;;12.81;76.10
42289;BME280;30230;47.520;19.016;2023-02-18T09:24:50;99404.00;;;12.96;75.64
42289;BME280;30230;47.520;19.016;2023-02-18T09:26:51;99409.44;;;12.96;75.14
42289;BME280;30230;47.520;19.016;2023-02-18T09:28:52;99414.22;;;13.01;75.55
42289;BME280;30230;47.520;19.016;2023-02-18T09:30:53;99391.47;;;13.02;74.93
42289;BME280;30230;47.520;19.016;2023-02-18T09:32:54;99400.81;;;13.13;75.99
42289;BME280;30230;47.520;19.016;2023-02-18T09:34:54;99386.16;;;13.20;74.06
42289;BME280;30230;47.520;19.016;2023-02-18T09:36:54;99395.34;;;13.26;73.90
42289;BME280;30230;47.520;19.016;2023-02-18T09:38:55;99389.66;;;13.34;73.37
42289;BME280;30230;47.520;19.016;2023-02-18T09:40:56;99393.69;;;13.25;73.79
42289;BME280;30230;47.520;19.016;2023-02-18T09:42:59;99402.41;;;13.34;77.98
42289;BME280;30230;47.520;19.016;2023-02-18T09:45:04;99387.44;;;13.56;74.73
42289;BME280;30230;47.520;19.016;2023-02-18T09:47:16;99380.34;;;13.55;71.64
42289;BME280;30230;47.520;19.016;2023-02-18T09:49:20;99401.31;;;13.41;72.41
42289;BME280;30230;47.520;19.016;2023-02-18T09:51:22;99391.03;;;13.50;71.76
42289;BME280;30230;47.520;19.016;2023-02-18T09:53:23;99393.75;;;13.50;71.82
42289;BME280;30230;47.520;19.016;2023-02-18T09:55:27;99402.44;;;13.59;71.35
42289;BME280;30230;47.520;19.016;2023-02-18T09:57:36;99397.22;;;13.57;72.25
42289;BME280;30230;47.520;19.016;2023-02-18T09:59:37;99403.47;;;13.58;72.16
42289;BME280;30230;47.520;19.016;2023-02-18T10:01:39;99391.38;;;13.60;71.45
42289;BME280;30230;47.520;19.016;2023-02-18T10:03:40;99384.44;;;13.64;71.48
42289;BME280;30230;47.520;19.016;2023-02-18T10:06:10;99384.56;;;13.76;70.51
42289;BME280;30230;47.520;19.016;2023-02-18T10:09:08;99376.19;;;13.77;69.47
42289;BME280;30230;47.520;19.016;2023-02-18T10:10:43;99393.78;;;13.75;70.74
42289;BME280;30230;47.520;19.016;2023-02-18T10:12:44;99387.81;;;13.85;70.44
42289;BME280;30230;47.520;19.016;2023-02-18T10:15:20;99387.22;;;13.82;70.00
42289;BME280;30230;47.520;19.016;2023-02-18T10:17:26;99385.41;;;13.76;70.80
42289;BME280;30230;47.520;19.016;2023-02-18T10:19:37;99384.56;;;13.76;68.92
42289;BME280;30230;47.520;19.016;2023-02-18T10:21:40;99387.66;;;13.79;67.67
42289;BME280;30230;47.520;19.016;2023-02-18T10:23:51;99375.50;;;13.57;68.06
42289;BME280;30230;47.520;19.016;2023-02-18T10:25:53;99392.38;;;13.66;68.51
42289;BME280;30230;47.520;19.016;2023-02-18T10:27:56;99375.84;;;13.67;68.35
42289;BME280;30230;47.520;19.016;2023-02-18T10:32:37;99393.31;;;13.78;68.76
42289;BME280;30230;47.520;19.016;2023-02-18T10:35:06;99374.88;;;13.87;69.00
42289;BME280;30230;47.520;19.016;2023-02-18T10:37:19;99384.31;;;14.27;67.65
42289;BME280;30230;47.520;19.016;2023-02-18T10:46:33;99365.28;;;14.82;65.97
42289;BME280;30230;47.520;19.016;2023-02-18T10:50:41;99359.41;;;14.67;66.92
42289;BME280;30230;47.520;19.016;2023-02-18T10:52:44;99376.19;;;14.64;67.17
42289;BME280;30230;47.520;19.016;2023-02-18T10:55:08;99365.25;;;14.52;67.71
42289;BME280;30230;47.520;19.016;2023-02-18T10:57:16;99362.78;;;14.26;69.26
42289;BME280;30230;47.520;19.016;2023-02-18T10:59:25;99358.25;;;14.20;69.73
42289;BME280;30230;47.520;19.016;2023-02-18T11:01:27;99355.75;;;14.18;69.29
42289;BME280;30230;47.520;19.016;2023-02-18T11:05:43;99357.09;;;13.91;71.59
42289;BME280;30230;47.520;19.016;2023-02-18T11:07:47;99352.25;;;13.93;71.13
42289;BME280;30230;47.520;19.016;2023-02-18T11:10:00;99374.56;;;13.95;71.01
42289;BME280;30230;47.520;19.016;2023-02-18T11:12:17;99360.00;;;13.89;71.44
42289;BME280;30230;47.520;19.016;2023-02-18T11:14:34;99358.47;;;13.75;72.42
42289;BME280;30230;47.520;19.016;2023-02-18T11:16:44;99335.53;;;13.46;73.48
42289;BME280;30230;47.520;19.016;2023-02-18T11:18:45;99333.91;;;13.38;74.63
42289;BME280;30230;47.520;19.016;2023-02-18T11:20:55;99337.19;;;13.47;73.89
42289;BME280;30230;47.520;19.016;2023-02-18T11:23:10;99347.03;;;13.41;74.74
42289;BME280;30230;47.520;19.016;2023-02-18T11:25:27;99338.84;;;13.48;74.72
42289;BME280;30230;47.520;19.016;2023-02-18T11:27:48;99320.31;;;13.70;74.42
42289;BME280;30230;47.520;19.016;2023-02-18T11:29:53;99320.66;;;13.73;73.99
42289;BME280;30230;47.520;19.016;2023-02-18T11:31:55;99311.38;;;14.06;72.95
42289;BME280;30230;47.520;19.016;2023-02-18T11:33:58;99308.28;;;14.21;71.59
42289;BME280;30230;47.520;19.016;2023-02-18T11:36:09;99311.84;;;14.03;73.29
42289;BME280;30230;47.520;19.016;2023-02-18T11:38:36;99303.53;;;13.98;72.97